createdAt,value
2023-10-27T00:01:06.188Z,54.22
2023-10-27T00:03:46.702Z,54.39
2023-10-27T00:06:20.373Z,54.13
2023-10-27T00:08:54.225Z,54.09
2023-10-27T00:11:28.654Z,54.28
2023-10-27T00:14:02.722Z,54.45
2023-10-27T00:16:36.772Z,54.62
2023-10-27T00:19:11.007Z,54.74
2023-10-27T00:21:45.229Z,54.67
2023-10-27T00:24:19.178Z,54.69
2023-10-27T00:26:53.092Z,54.60
2023-10-27T00:29:26.950Z,54.83
2023-10-27T00:32:00.952Z,54.81
2023-10-27T00:34:34.595Z,54.70
2023-10-27T00:37:09.442Z,54.89
2023-10-27T00:39:43.449Z,54.88
2023-10-27T00:42:17.326Z,55.25
2023-10-27T00:44:51.026Z,55.53
2023-10-27T00:47:26.132Z,55.41
2023-10-27T00:50:00.407Z,55.64
2023-10-27T00:52:34.532Z,55.77
2023-10-27T00:55:11.357Z,55.78
2023-10-27T00:57:48.453Z,55.95
2023-10-27T01:00:22.708Z,55.75
2023-10-27T01:02:56.408Z,56.03
2023-10-27T01:05:30.961Z,56.00
2023-10-27T01:08:05.092Z,55.77
2023-10-27T01:10:39.063Z,55.90
2023-10-27T01:13:13.109Z,55.83
2023-10-27T01:15:47.345Z,55.97
2023-10-27T01:18:21.331Z,56.06
2023-10-27T01:20:55.472Z,56.13
2023-10-27T01:23:31.134Z,56.33
2023-10-27T01:26:05.286Z,56.32
2023-10-27T01:28:38.981Z,56.38
2023-10-27T01:31:12.699Z,56.18
2023-10-27T01:33:46.642Z,56.34
2023-10-27T01:36:21.022Z,56.30
2023-10-27T01:38:54.882Z,56.54
2023-10-27T01:41:28.693Z,56.52
2023-10-27T01:44:02.633Z,56.61
2023-10-27T01:46:36.919Z,56.61
2023-10-27T01:49:11.418Z,56.72
2023-10-27T01:51:45.505Z,56.56
2023-10-27T01:54:19.581Z,56.56
2023-10-27T01:56:53.176Z,56.69
2023-10-27T01:59:26.850Z,56.84
2023-10-27T02:02:00.984Z,56.93
2023-10-27T02:04:38.662Z,57.02
2023-10-27T02:07:14.065Z,57.13
2023-10-27T02:09:48.508Z,57.17
2023-10-27T02:12:22.218Z,57.22
2023-10-27T02:14:56.078Z,57.38
2023-10-27T02:17:30.342Z,57.31
2023-10-27T02:20:04.344Z,57.38
2023-10-27T02:22:38.217Z,57.53
2023-10-27T02:25:12.451Z,57.60
2023-10-27T02:27:46.450Z,57.42
2023-10-27T02:30:20.411Z,57.44
2023-10-27T02:32:54.219Z,57.31
2023-10-27T02:35:28.641Z,57.34
2023-10-27T02:38:02.133Z,57.20
2023-10-27T02:40:37.910Z,57.26
2023-10-27T02:43:15.110Z,57.27
2023-10-27T02:45:49.409Z,57.23
2023-10-27T02:48:23.216Z,57.15
2023-10-27T02:50:57.022Z,56.60
2023-10-27T02:53:30.821Z,56.40
2023-10-27T02:56:10.974Z,56.22
2023-10-27T02:58:44.904Z,55.84
2023-10-27T03:01:19.152Z,55.75
2023-10-27T03:03:53.513Z,55.59
2023-10-27T03:06:27.249Z,55.52
2023-10-27T03:09:01.170Z,55.62
2023-10-27T03:11:35.016Z,56.07
2023-10-27T03:14:08.997Z,56.26
2023-10-27T03:16:43.028Z,56.47
2023-10-27T03:19:17.056Z,56.41
2023-10-27T03:21:51.459Z,56.41
2023-10-27T03:24:25.239Z,56.53
2023-10-27T03:26:58.777Z,56.66
2023-10-27T03:29:32.806Z,56.76
2023-10-27T03:32:10.255Z,56.83
2023-10-27T03:34:44.901Z,56.85
2023-10-27T03:37:18.828Z,56.93
2023-10-27T03:39:54.642Z,57.15
2023-10-27T03:42:28.378Z,57.22
2023-10-27T03:45:02.143Z,57.24
2023-10-27T03:47:35.965Z,57.17
2023-10-27T03:50:12.291Z,57.15
2023-10-27T03:52:45.928Z,57.07
2023-10-27T03:55:20.154Z,57.18
2023-10-27T03:57:55.345Z,57.12
2023-10-27T04:00:31.256Z,57.09
2023-10-27T04:03:05.186Z,57.01
2023-10-27T04:05:39.305Z,56.53
2023-10-27T04:08:13.027Z,56.29
2023-10-27T04:10:47.462Z,56.20
2023-10-27T04:13:21.420Z,55.90
2023-10-27T04:15:55.369Z,55.45
2023-10-27T04:18:30.527Z,55.06
2023-10-27T04:21:05.289Z,54.74
2023-10-27T04:23:39.088Z,54.63
2023-10-27T04:26:14.337Z,54.23
2023-10-27T04:28:47.939Z,54.00
2023-10-27T04:31:22.391Z,54.19
2023-10-27T04:33:56.522Z,54.30
2023-10-27T04:36:30.047Z,54.36
2023-10-27T04:39:05.280Z,54.01
2023-10-27T04:41:39.166Z,53.67
2023-10-27T04:44:13.987Z,53.26
2023-10-27T04:46:47.748Z,52.69
2023-10-27T04:49:21.824Z,52.31
2023-10-27T04:51:55.844Z,52.03
2023-10-27T04:54:29.670Z,51.60
2023-10-27T04:57:04.712Z,51.29
2023-10-27T04:59:38.837Z,50.80
2023-10-27T05:02:13.778Z,50.57
2023-10-27T05:04:47.509Z,50.27
2023-10-27T05:07:21.785Z,49.75
2023-10-27T05:09:55.622Z,49.31
2023-10-27T05:12:29.654Z,48.85
2023-10-27T05:15:04.610Z,48.27
2023-10-27T05:17:39.811Z,47.93
2023-10-27T05:20:14.709Z,47.50
2023-10-27T05:22:48.377Z,47.22
2023-10-27T05:25:22.410Z,46.83
2023-10-27T05:27:56.322Z,46.16
2023-10-27T05:30:29.857Z,45.83
2023-10-27T05:33:03.716Z,45.44
2023-10-27T05:35:37.504Z,45.02
2023-10-27T05:38:11.385Z,44.38
2023-10-27T05:40:45.066Z,44.35
2023-10-27T05:43:19.446Z,43.86
2023-10-27T05:45:53.340Z,42.97
2023-10-27T05:48:27.366Z,42.28
2023-10-27T05:51:01.606Z,42.03
2023-10-27T05:53:35.707Z,41.65
2023-10-27T05:56:10.475Z,40.98
2023-10-27T05:58:44.158Z,40.40
2023-10-27T06:01:19.056Z,39.86
2023-10-27T06:03:55.205Z,39.95
2023-10-27T06:06:28.954Z,39.44
2023-10-27T06:09:03.187Z,38.74
2023-10-27T06:11:37.382Z,38.51
2023-10-27T06:14:11.701Z,38.13
2023-10-27T06:16:45.719Z,37.94
2023-10-27T06:19:21.549Z,37.49
2023-10-27T06:21:55.593Z,37.22
2023-10-27T06:24:29.963Z,36.71
2023-10-27T06:27:04.668Z,36.85
2023-10-27T06:29:39.952Z,36.41
2023-10-27T06:32:13.842Z,35.98
2023-10-27T06:34:48.070Z,36.03
2023-10-27T06:37:21.884Z,36.11
2023-10-27T06:40:00.912Z,35.19
2023-10-27T06:42:34.788Z,35.20
2023-10-27T06:45:10.164Z,34.63
2023-10-27T06:47:44.397Z,33.76
2023-10-27T06:50:18.692Z,32.50
2023-10-27T06:52:53.016Z,30.25
2023-10-27T06:55:26.938Z,27.91
2023-10-27T06:58:01.739Z,25.54
2023-10-27T07:00:35.463Z,23.38
2023-10-27T07:03:21.174Z,21.14
2023-10-27T07:06:03.090Z,19.63
2023-10-27T07:08:39.337Z,18.38
2023-10-27T07:11:13.158Z,17.36
2023-10-27T07:13:47.298Z,16.20
2023-10-27T07:16:21.275Z,16.30
2023-10-27T07:18:55.287Z,15.69
2023-10-27T07:21:29.220Z,15.09
2023-10-27T07:24:03.403Z,14.34
2023-10-27T07:26:37.068Z,13.99
2023-10-27T07:29:10.885Z,13.60
2023-10-27T07:31:45.341Z,13.18
2023-10-27T07:34:19.328Z,13.44
2023-10-27T07:36:54.881Z,13.91
2023-10-27T07:39:30.101Z,14.55
2023-10-27T07:42:04.824Z,15.36
2023-10-27T07:44:36.714Z,16.35
2023-10-27T07:47:10.767Z,17.35
2023-10-27T07:49:44.835Z,18.35
2023-10-27T07:52:19.163Z,19.09
2023-10-27T07:54:52.769Z,19.96
2023-10-27T07:57:26.585Z,20.62
2023-10-27T08:00:00.212Z,21.38
2023-10-27T08:02:34.924Z,21.94
2023-10-27T08:05:09.654Z,22.61
2023-10-27T08:07:44.459Z,22.86
2023-10-27T08:10:18.527Z,23.49
2023-10-27T08:12:52.503Z,23.77
2023-10-27T08:15:27.024Z,23.85
2023-10-27T08:18:00.994Z,24.23
2023-10-27T08:20:35.005Z,24.35
2023-10-27T08:23:08.800Z,24.67
2023-10-27T08:25:43.593Z,24.87
2023-10-27T08:28:17.639Z,25.27
2023-10-27T08:30:51.631Z,25.64
2023-10-27T08:33:25.574Z,25.71
2023-10-27T08:36:06.285Z,25.91
2023-10-27T08:38:39.943Z,25.75
2023-10-27T08:41:15.488Z,25.54
2023-10-27T08:43:49.201Z,25.80
2023-10-27T08:46:23.161Z,26.22
2023-10-27T08:48:57.569Z,26.69
2023-10-27T08:51:31.501Z,26.81
2023-10-27T08:54:05.400Z,27.01
2023-10-27T08:56:39.709Z,27.28
2023-10-27T08:59:13.635Z,27.43
2023-10-27T09:01:47.330Z,27.84
2023-10-27T09:04:22.698Z,27.94
2023-10-27T09:06:57.636Z,27.78
2023-10-27T09:09:32.844Z,27.79
2023-10-27T09:12:07.196Z,28.15
2023-10-27T09:14:42.252Z,28.73
2023-10-27T09:17:17.262Z,28.33
2023-10-27T09:19:51.006Z,28.14
2023-10-27T09:22:31.499Z,28.30
2023-10-27T09:25:20.512Z,28.47
2023-10-27T09:27:54.979Z,28.12
2023-10-27T09:30:33.729Z,28.26
2023-10-27T09:33:20.466Z,28.39
2023-10-27T09:35:55.208Z,28.22
2023-10-27T09:38:29.413Z,27.86
2023-10-27T09:41:04.724Z,27.52
2023-10-27T09:43:39.123Z,27.92
2023-10-27T09:46:12.933Z,27.84
2023-10-27T09:48:51.190Z,27.71
2023-10-27T09:51:29.517Z,28.14
2023-10-27T09:54:04.898Z,28.35
2023-10-27T09:56:38.910Z,28.43
2023-10-27T09:59:13.054Z,28.79
2023-10-27T10:01:46.869Z,28.43
2023-10-27T10:04:57.026Z,28.42
2023-10-27T10:07:35.014Z,28.55
2023-10-27T10:10:37.800Z,28.88
2023-10-27T10:13:15.772Z,28.72
2023-10-27T10:15:55.592Z,28.64
2023-10-27T10:18:58.909Z,28.93
2023-10-27T10:21:40.589Z,28.66
2023-10-27T10:24:15.223Z,28.75
2023-10-27T10:27:16.866Z,28.71
2023-10-27T10:29:54.264Z,29.02
2023-10-27T10:32:47.687Z,28.86
2023-10-27T10:35:29.596Z,28.74
2023-10-27T10:38:39.748Z,29.06
2023-10-27T10:41:15.795Z,29.18
2023-10-27T10:43:49.762Z,28.74
2023-10-27T10:46:33.497Z,28.70
2023-10-27T10:49:08.260Z,28.41
2023-10-27T10:51:42.324Z,28.47
2023-10-27T10:54:16.629Z,28.47
2023-10-27T10:56:50.533Z,28.61
2023-10-27T10:59:30.915Z,29.13
2023-10-27T11:02:05.771Z,29.12
2023-10-27T11:04:42.419Z,29.14
2023-10-27T11:07:20.079Z,29.16
2023-10-27T11:09:53.758Z,29.13
2023-10-27T11:12:30.890Z,29.40
2023-10-27T11:15:04.409Z,28.99
2023-10-27T11:17:54.431Z,28.96
2023-10-27T11:20:40.555Z,29.01
2023-10-27T11:23:14.887Z,29.67
2023-10-27T11:25:49.149Z,29.67
2023-10-27T11:28:28.503Z,29.54
2023-10-27T11:31:09.491Z,29.55
2023-10-27T11:33:59.883Z,29.88
2023-10-27T11:36:35.283Z,30.21
2023-10-27T11:39:19.342Z,30.24
2023-10-27T11:41:54.897Z,30.27
2023-10-27T11:44:28.805Z,30.61
2023-10-27T11:47:03.581Z,30.62
2023-10-27T11:49:37.550Z,30.64
2023-10-27T11:52:12.214Z,30.99
2023-10-27T11:54:45.976Z,30.91
2023-10-27T11:57:19.577Z,31.25
2023-10-27T11:59:53.267Z,31.40
2023-10-27T12:02:27.466Z,31.47
2023-10-27T12:05:04.245Z,31.44
2023-10-27T12:07:39.012Z,31.19
2023-10-27T12:10:14.140Z,31.31
2023-10-27T12:12:48.868Z,31.83
2023-10-27T12:15:23.318Z,31.91
2023-10-27T12:17:58.612Z,31.94
2023-10-27T12:20:32.395Z,32.33
2023-10-27T12:23:06.616Z,32.05
2023-10-27T12:25:42.251Z,32.20
2023-10-27T12:28:16.293Z,32.45
2023-10-27T12:30:50.372Z,32.72
2023-10-27T12:33:25.061Z,32.90
2023-10-27T12:35:58.811Z,32.93
2023-10-27T12:38:32.950Z,32.63
2023-10-27T12:41:07.380Z,32.74
2023-10-27T12:43:41.848Z,32.77
2023-10-27T12:46:15.758Z,32.91
2023-10-27T12:48:50.521Z,33.32
2023-10-27T12:51:24.088Z,33.55
2023-10-27T12:53:58.062Z,33.45
2023-10-27T12:56:32.052Z,33.67
2023-10-27T12:59:05.834Z,34.15
2023-10-27T13:01:39.574Z,34.32
2023-10-27T13:04:14.579Z,34.25
2023-10-27T13:06:48.174Z,33.74
2023-10-27T13:09:22.557Z,33.41
2023-10-27T13:11:58.025Z,33.88
2023-10-27T13:14:32.537Z,33.96
2023-10-27T13:17:06.584Z,33.78
2023-10-27T13:19:40.354Z,34.30
2023-10-27T13:22:14.156Z,33.67
2023-10-27T13:24:47.868Z,33.73
2023-10-27T13:27:21.572Z,33.39
2023-10-27T13:30:00.360Z,33.54
2023-10-27T13:32:34.504Z,33.49
2023-10-27T13:35:09.004Z,33.38
2023-10-27T13:37:43.484Z,33.42
2023-10-27T13:40:20.551Z,33.42
2023-10-27T13:42:54.625Z,33.36
2023-10-27T13:45:28.396Z,33.45
2023-10-27T13:48:02.384Z,33.42
2023-10-27T13:50:36.495Z,33.40
2023-10-27T13:53:10.657Z,33.23
2023-10-27T13:55:49.201Z,33.60
2023-10-27T13:58:23.006Z,33.54
2023-10-27T14:00:56.808Z,33.66
2023-10-27T14:03:31.592Z,34.09
2023-10-27T14:06:05.991Z,34.04
2023-10-27T14:08:39.536Z,34.45
2023-10-27T14:11:13.498Z,34.53
2023-10-27T14:13:47.836Z,34.64
2023-10-27T14:16:21.933Z,34.63
2023-10-27T14:18:56.120Z,34.64
2023-10-27T14:21:30.589Z,35.15
2023-10-27T14:24:04.165Z,35.02
2023-10-27T14:26:38.286Z,34.91
2023-10-27T14:29:12.175Z,34.85
2023-10-27T14:31:45.957Z,35.18
2023-10-27T14:34:20.329Z,35.18
2023-10-27T14:36:53.980Z,35.27
2023-10-27T14:39:28.457Z,35.29
2023-10-27T14:42:02.492Z,35.44
2023-10-27T14:44:37.546Z,35.28
2023-10-27T14:47:12.819Z,35.39
2023-10-27T14:49:46.817Z,35.46
2023-10-27T14:52:20.809Z,35.77
2023-10-27T14:54:54.582Z,35.85
2023-10-27T14:57:28.312Z,35.79
2023-10-27T15:00:01.865Z,35.96
2023-10-27T15:02:36.061Z,36.14
2023-10-27T15:05:11.017Z,36.17
2023-10-27T15:07:47.101Z,36.54
2023-10-27T15:10:21.281Z,36.50
2023-10-27T15:12:54.911Z,36.24
2023-10-27T15:15:28.771Z,36.25
2023-10-27T15:18:02.600Z,36.38
2023-10-27T15:20:37.182Z,36.60
2023-10-27T15:23:11.876Z,36.76
2023-10-27T15:25:45.549Z,36.72
2023-10-27T15:28:19.320Z,36.70
2023-10-27T15:31:02.035Z,37.17
2023-10-27T15:33:40.009Z,37.44
2023-10-27T15:36:15.903Z,37.58
2023-10-27T15:38:49.959Z,37.61
2023-10-27T15:41:30.841Z,37.66
2023-10-27T15:44:05.013Z,37.85
2023-10-27T15:46:41.926Z,38.03
2023-10-27T15:49:15.938Z,37.96
2023-10-27T15:51:50.113Z,38.15
2023-10-27T15:54:23.522Z,38.02
2023-10-27T15:56:58.344Z,37.99
2023-10-27T15:59:38.431Z,37.76
2023-10-27T16:02:12.553Z,37.86
2023-10-27T16:04:46.577Z,38.13
2023-10-27T16:07:21.190Z,38.03
2023-10-27T16:09:55.312Z,38.44
2023-10-27T16:12:28.962Z,38.59
2023-10-27T16:15:03.027Z,38.99
2023-10-27T16:17:38.378Z,38.92
2023-10-27T16:20:14.860Z,38.62
2023-10-27T16:22:48.508Z,39.32
2023-10-27T16:25:23.317Z,39.86
2023-10-27T16:27:57.836Z,40.20
2023-10-27T16:30:32.568Z,40.21
2023-10-27T16:33:06.086Z,40.18
2023-10-27T16:35:41.590Z,39.93
2023-10-27T16:38:15.141Z,39.21
2023-10-27T16:40:49.122Z,38.98
2023-10-27T16:43:24.604Z,39.20
2023-10-27T16:46:05.571Z,39.53
2023-10-27T16:48:39.877Z,39.93
2023-10-27T16:51:15.961Z,40.55
2023-10-27T16:53:50.211Z,40.59
2023-10-27T16:56:23.880Z,40.44
2023-10-27T16:59:01.647Z,40.22
2023-10-27T17:01:35.484Z,40.00
2023-10-27T17:04:09.404Z,40.04
2023-10-27T17:06:43.153Z,39.88
2023-10-27T17:09:17.715Z,39.52
2023-10-27T17:11:55.955Z,39.34
2023-10-27T17:14:30.436Z,39.16
2023-10-27T17:17:05.349Z,38.81
2023-10-27T17:19:39.503Z,38.64
2023-10-27T17:22:25.327Z,38.39
2023-10-27T17:25:02.053Z,38.36
2023-10-27T17:27:36.575Z,38.10
2023-10-27T17:30:12.708Z,38.17
2023-10-27T17:32:47.063Z,38.13
2023-10-27T17:35:21.311Z,38.27
2023-10-27T17:37:55.148Z,38.25
2023-10-27T17:40:30.406Z,38.73
2023-10-27T17:43:04.801Z,38.96
2023-10-27T17:45:41.849Z,39.11
2023-10-27T17:48:16.851Z,39.27
2023-10-27T17:50:51.539Z,39.39
2023-10-27T17:53:26.364Z,39.42
2023-10-27T17:56:00.794Z,39.52
2023-10-27T17:58:34.901Z,39.97
2023-10-27T18:01:10.419Z,40.09
2023-10-27T18:03:44.515Z,40.37
2023-10-27T18:06:18.820Z,40.67
2023-10-27T18:08:53.151Z,40.92
2023-10-27T18:11:27.959Z,41.00
2023-10-27T18:14:02.182Z,41.18
2023-10-27T18:16:36.671Z,40.83
2023-10-27T18:19:11.043Z,40.77
2023-10-27T18:21:45.306Z,40.75
2023-10-27T18:24:19.348Z,40.78
2023-10-27T18:26:53.313Z,40.86
2023-10-27T18:29:27.523Z,40.99
2023-10-27T18:32:01.404Z,41.03
2023-10-27T18:34:35.162Z,40.97
2023-10-27T18:37:09.786Z,40.94
2023-10-27T18:39:43.631Z,40.99
2023-10-27T18:42:17.728Z,40.93
2023-10-27T18:44:54.092Z,41.05
2023-10-27T18:47:31.488Z,41.07
2023-10-27T18:50:10.365Z,41.26
2023-10-27T18:52:44.283Z,41.37
2023-10-27T18:55:21.356Z,41.57
2023-10-27T18:57:56.165Z,41.91
2023-10-27T19:00:34.812Z,42.18
2023-10-27T19:03:09.634Z,42.25
2023-10-27T19:05:44.176Z,42.54
2023-10-27T19:08:18.207Z,43.01
2023-10-27T19:10:52.718Z,43.30
2023-10-27T19:13:26.569Z,43.41
2023-10-27T19:16:00.489Z,43.62
2023-10-27T19:18:35.435Z,43.87
2023-10-27T19:21:13.952Z,44.11
2023-10-27T19:23:50.042Z,44.25
2023-10-27T19:26:26.823Z,44.50
2023-10-27T19:29:01.496Z,44.43
2023-10-27T19:31:35.829Z,44.68
2023-10-27T19:34:09.865Z,44.72
2023-10-27T19:36:43.811Z,44.89
2023-10-27T19:39:18.628Z,44.95
2023-10-27T19:41:52.476Z,45.11
2023-10-27T19:44:26.202Z,45.28
2023-10-27T19:47:00.150Z,45.27
2023-10-27T19:49:35.087Z,45.38
2023-10-27T19:52:12.197Z,45.31
2023-10-27T19:54:46.015Z,45.48
2023-10-27T19:57:20.189Z,45.31
2023-10-27T19:59:54.234Z,45.51
2023-10-27T20:02:28.307Z,45.63
2023-10-27T20:05:02.313Z,45.86
2023-10-27T20:07:36.227Z,46.15
2023-10-27T20:10:11.528Z,46.39
2023-10-27T20:12:45.379Z,46.73
2023-10-27T20:15:20.711Z,46.84
2023-10-27T20:17:55.054Z,47.09
2023-10-27T20:20:31.074Z,46.92
2023-10-27T20:23:05.569Z,47.05
2023-10-27T20:25:39.368Z,47.29
2023-10-27T20:28:13.566Z,47.15
2023-10-27T20:30:47.946Z,47.62
2023-10-27T20:33:23.380Z,47.66
2023-10-27T20:35:58.082Z,48.07
2023-10-27T20:38:32.010Z,48.05
2023-10-27T20:41:07.156Z,48.28
2023-10-27T20:43:40.882Z,48.13
2023-10-27T20:46:15.717Z,48.38
2023-10-27T20:48:49.798Z,48.27
2023-10-27T20:51:24.564Z,48.39
2023-10-27T20:53:59.299Z,48.43
2023-10-27T20:56:34.288Z,48.02
2023-10-27T20:59:08.438Z,47.56
2023-10-27T21:01:43.042Z,47.42
2023-10-27T21:04:16.984Z,47.21
2023-10-27T21:06:51.782Z,47.19
2023-10-27T21:09:28.798Z,46.84
2023-10-27T21:12:03.978Z,46.90
2023-10-27T21:14:38.042Z,46.69
2023-10-27T21:17:12.700Z,46.76
2023-10-27T21:19:46.687Z,46.95
2023-10-27T21:22:22.299Z,46.93
2023-10-27T21:24:57.480Z,46.97
2023-10-27T21:27:31.972Z,46.91
2023-10-27T21:30:06.809Z,47.02
2023-10-27T21:32:40.761Z,47.11
2023-10-27T21:35:14.994Z,47.22
2023-10-27T21:37:53.516Z,47.42
2023-10-27T21:40:28.191Z,47.65
2023-10-27T21:43:02.462Z,47.75
2023-10-27T21:45:37.066Z,47.94
2023-10-27T21:48:15.558Z,47.93
2023-10-27T21:50:49.894Z,48.15
2023-10-27T21:53:23.981Z,48.48
2023-10-27T21:55:58.724Z,48.38
2023-10-27T21:58:33.354Z,48.44
2023-10-27T22:01:09.648Z,48.49
2023-10-27T22:03:44.738Z,48.71
2023-10-27T22:06:20.052Z,48.77
2023-10-27T22:08:54.135Z,49.00
2023-10-27T22:11:30.569Z,49.14
2023-10-27T22:14:05.258Z,49.34
2023-10-27T22:16:41.849Z,49.42
2023-10-27T22:19:16.773Z,49.49
2023-10-27T22:21:51.214Z,49.63
2023-10-27T22:24:25.314Z,49.87
2023-10-27T22:27:00.435Z,49.95
2023-10-27T22:29:34.526Z,50.13
2023-10-27T22:32:08.687Z,50.38
2023-10-27T22:34:43.174Z,50.55
2023-10-27T22:37:17.197Z,50.67
2023-10-27T22:39:50.808Z,50.86
2023-10-27T22:42:25.371Z,51.07
2023-10-27T22:45:00.036Z,51.37
2023-10-27T22:47:33.876Z,51.27
2023-10-27T22:50:11.106Z,51.42
2023-10-27T22:52:46.573Z,51.49
2023-10-27T22:55:22.414Z,51.51
2023-10-27T22:57:56.361Z,51.56
2023-10-27T23:00:30.310Z,51.41
2023-10-27T23:03:05.551Z,51.78
2023-10-27T23:05:41.065Z,52.00
2023-10-27T23:08:15.779Z,52.06
2023-10-27T23:10:50.127Z,51.82
2023-10-27T23:13:24.729Z,51.91
2023-10-27T23:16:07.236Z,52.06
2023-10-27T23:18:43.257Z,52.31
2023-10-27T23:21:18.348Z,52.59
2023-10-27T23:23:52.745Z,52.63
2023-10-27T23:26:26.762Z,52.96
2023-10-27T23:29:00.924Z,53.10
2023-10-27T23:31:35.765Z,53.09
2023-10-27T23:34:09.644Z,53.09
2023-10-27T23:36:44.382Z,53.08
2023-10-27T23:39:18.953Z,53.23
2023-10-27T23:41:52.432Z,53.35
2023-10-27T23:44:26.877Z,53.57
2023-10-27T23:47:02.622Z,53.69
2023-10-27T23:49:36.897Z,53.69
2023-10-27T23:52:12.095Z,53.73
2023-10-27T23:54:46.747Z,53.98
2023-10-27T23:57:21.525Z,53.97
2023-10-27T23:59:57.052Z,53.96
